Time;durP1;ratioP1;P1;durP2;ratioP2;P2;SDS_P1;SDS_P2;PMS_P1;PMS_P2;Temp;Humidity;BMP_temperature;BMP_pressure;BME280_temperature;BME280_humidity;BME280_pressure;Samples;Min_cycle;Max_cycle;Signal;HPM_P1;HPM_P2
2022/09/15 00:01:24;;;;;;;15.35;10.90;;;;;;;14.67;81.32;100646.44;6066842;23;20437;-93
2022/09/15 00:03:50;;;;;;;20.77;11.02;;;;;;;14.54;81.75;100634.84;6067664;23;20010;-92
2022/09/15 00:06:16;;;;;;;17.70;10.48;;;;;;;14.55;80.56;100641.88;6068493;23;20012;-92
2022/09/15 00:08:41;;;;;;;16.77;10.60;;;;;;;14.56;81.92;100634.75;6065313;23;20022;-92
2022/09/15 00:11:21;;;;;;;19.67;11.45;;;;;;;14.60;81.90;100625.66;6092192;23;20006;-92
2022/09/15 00:13:48;;;;;;;21.23;10.65;;;;;;;14.57;81.46;100632.00;6067493;23;20014;-91
2022/09/15 00:16:14;;;;;;;15.48;10.35;;;;;;;14.60;82.10;100647.78;6067119;23;20010;-92
2022/09/15 00:18:40;;;;;;;17.90;11.10;;;;;;;14.60;81.78;100644.28;6067033;23;20010;-92
2022/09/15 00:21:08;;;;;;;17.70;10.20;;;;;;;14.52;82.18;100634.09;6091612;23;20013;-92
2022/09/15 00:23:34;;;;;;;17.48;10.15;;;;;;;14.50;82.50;100639.50;6088822;23;20010;-92
2022/09/15 00:25:59;;;;;;;21.65;10.70;;;;;;;14.43;82.42;100634.59;6066080;23;20014;-91
2022/09/15 00:28:24;;;;;;;19.23;10.30;;;;;;;14.39;81.99;100636.56;6065939;23;20395;-92
2022/09/15 00:30:51;;;;;;;15.43;9.45;;;;;;;14.38;81.49;100632.22;6091838;23;20034;-93
2022/09/15 00:33:19;;;;;;;23.30;11.68;;;;;;;14.44;82.42;100633.63;6092159;23;20061;-92
2022/09/15 00:35:46;;;;;;;19.27;10.13;;;;;;;14.39;82.33;100622.44;6066130;23;20445;-92
2022/09/15 00:38:13;;;;;;;17.83;10.73;;;;;;;14.38;81.93;100621.56;6066917;23;20002;-92
2022/09/15 00:40:45;;;;;;;18.45;10.65;;;;;;;14.48;82.57;100624.56;6066241;23;20457;-93
2022/09/15 00:43:11;;;;;;;18.55;11.23;;;;;;;14.42;82.10;100617.78;6067834;23;20460;-92
2022/09/15 00:45:37;;;;;;;18.70;10.95;;;;;;;14.43;82.78;100622.16;6092654;23;20486;-92
2022/09/15 00:48:03;;;;;;;21.17;11.35;;;;;;;14.53;82.60;100628.66;6066220;23;20124;-92
2022/09/15 00:50:31;;;;;;;21.17;12.30;;;;;;;14.41;83.28;100615.19;6067182;23;20498;-92
2022/09/15 00:53:00;;;;;;;18.27;11.63;;;;;;;14.40;83.04;100617.00;6066915;23;20010;-92
2022/09/15 00:55:31;;;;;;;17.83;10.52;;;;;;;14.52;82.60;100629.63;6066222;23;20006;-92
2022/09/15 00:58:01;;;;;;;19.48;11.07;;;;;;;14.49;82.47;100615.63;6067594;23;20010;-92
2022/09/15 01:00:27;;;;;;;19.83;11.25;;;;;;;14.55;82.50;100625.94;6066576;23;20002;-92
2022/09/15 01:02:54;;;;;;;20.23;12.15;;;;;;;14.60;82.60;100623.00;6065149;23;20037;-93
2022/09/15 01:05:23;;;;;;;20.23;12.57;;;;;;;14.61;82.31;100620.22;6065974;23;20510;-93
2022/09/15 01:08:00;;;;;;;18.38;11.88;;;;;;;14.72;82.38;100633.72;6092586;23;20006;-92
2022/09/15 01:10:35;;;;;;;20.30;11.43;;;;;;;14.77;82.41;100639.63;6066493;23;19998;-92
2022/09/15 01:13:11;;;;;;;19.63;11.88;;;;;;;14.75;82.39;100630.03;6064433;23;20010;-92
2022/09/15 01:16:10;;;;;;;19.95;12.38;;;;;;;14.77;81.64;100631.63;6092187;23;20003;-92
2022/09/15 01:18:47;;;;;;;18.67;12.30;;;;;;;14.84;81.90;100640.13;6092283;23;20006;-93
2022/09/15 01:21:30;;;;;;;17.65;11.65;;;;;;;14.84;82.32;100644.59;6090142;23;20013;-92
2022/09/15 01:24:36;;;;;;;19.10;12.07;;;;;;;14.89;81.78;100639.84;6091857;23;20052;-92
2022/09/15 01:27:26;;;;;;;20.27;11.75;;;;;;;14.90;81.83;100636.22;6091428;23;20002;-92
2022/09/15 01:30:20;;;;;;;17.08;12.32;;;;;;;14.89;82.25;100631.84;6065720;23;20097;-92
2022/09/15 01:33:03;;;;;;;19.60;11.95;;;;;;;14.82;82.37;100622.53;6092079;23;20010;-92
2022/09/15 01:35:32;;;;;;;24.73;12.85;;;;;;;14.82;82.72;100620.72;6090401;23;20406;-93
2022/09/15 01:38:06;;;;;;;19.20;12.10;;;;;;;14.87;82.84;100631.06;6066134;23;20018;-92
2022/09/15 01:40:38;;;;;;;19.02;12.48;;;;;;;14.86;82.97;100622.25;6091204;23;20010;-92
2022/09/15 01:43:08;;;;;;;20.80;12.07;;;;;;;14.89;83.16;100624.72;6065168;23;20003;-92
2022/09/15 01:45:35;;;;;;;20.85;11.93;;;;;;;14.88;82.97;100625.69;6091163;23;20077;-93
2022/09/15 01:48:03;;;;;;;20.80;12.80;;;;;;;14.77;82.59;100610.34;6092437;23;20014;-92
2022/09/15 01:50:35;;;;;;;18.55;12.70;;;;;;;14.70;83.47;100618.81;6066181;23;20338;-92
2022/09/15 01:53:07;;;;;;;19.48;12.32;;;;;;;14.74;83.14;100634.50;6065193;23;20014;-92
2022/09/15 01:56:04;;;;;;;19.48;12.00;;;;;;;14.85;82.88;100638.31;6063933;23;20081;-93
2022/09/15 01:58:30;;;;;;;18.25;12.63;;;;;;;14.83;82.91;100634.88;6090370;23;20013;-94
2022/09/15 02:01:02;;;;;;;19.25;12.30;;;;;;;14.82;82.97;100634.03;6065750;23;20105;-92
2022/09/15 02:03:34;;;;;;;17.88;10.77;;;;;;;14.80;82.93;100631.47;6063662;23;20010;-93
2022/09/15 02:06:17;;;;;;;23.23;13.20;;;;;;;14.72;82.99;100627.56;6090331;23;20393;-94
2022/09/15 02:08:48;;;;;;;17.77;11.73;;;;;;;14.62;83.89;100629.06;6062256;23;20365;-92
2022/09/15 02:11:25;;;;;;;19.27;12.18;;;;;;;14.64;83.80;100625.38;6063768;23;20029;-93
2022/09/15 02:14:16;;;;;;;21.30;12.60;;;;;;;14.67;83.94;100629.63;6088879;23;20516;-91
2022/09/15 02:16:45;;;;;;;17.95;11.20;;;;;;;14.65;82.63;100632.41;6064447;23;20008;-92
2022/09/15 02:19:16;;;;;;;23.38;12.45;;;;;;;14.60;83.28;100629.16;6065511;23;20007;-92
2022/09/15 02:21:56;;;;;;;16.27;10.85;;;;;;;14.56;82.72;100635.63;6067185;23;20421;-92
2022/09/15 02:24:36;;;;;;;17.88;11.75;;;;;;;14.54;83.35;100624.19;6092342;23;20040;-93
2022/09/15 02:27:09;;;;;;;17.52;11.82;;;;;;;14.59;83.51;100624.78;6065757;23;20065;-92
2022/09/15 02:29:36;;;;;;;25.05;12.43;;;;;;;14.57;83.74;100623.16;6066659;23;20021;-92
2022/09/15 02:32:03;;;;;;;22.63;12.25;;;;;;;14.56;83.66;100619.66;6066448;23;20002;-92
2022/09/15 02:34:36;;;;;;;21.85;11.95;;;;;;;14.60;83.35;100621.19;6092340;23;20010;-92
2022/09/15 02:37:03;;;;;;;15.70;11.35;;;;;;;14.58;82.54;100619.56;6065928;23;20013;-92
2022/09/15 02:39:34;;;;;;;15.25;11.18;;;;;;;14.53;81.68;100622.47;6065815;23;20006;-93
2022/09/15 02:42:01;;;;;;;17.50;11.02;;;;;;;14.52;83.05;100616.31;6066268;23;20046;-92
2022/09/15 02:44:29;;;;;;;20.42;11.88;;;;;;;14.48;82.64;100622.75;6065369;23;20013;-93
2022/09/15 02:46:56;;;;;;;16.92;11.55;;;;;;;14.41;82.30;100615.19;6067022;23;20045;-91
2022/09/15 02:49:21;;;;;;;20.67;12.07;;;;;;;14.36;82.67;100625.25;6066137;23;20012;-92
2022/09/15 02:51:47;;;;;;;18.48;11.40;;;;;;;14.30;82.72;100630.00;6092689;23;20006;-92
2022/09/15 02:54:13;;;;;;;17.05;10.40;;;;;;;14.19;81.66;100628.94;6090416;23;20034;-92
2022/09/15 02:56:38;;;;;;;14.70;9.68;;;;;;;14.06;80.28;100623.47;6066506;23;20014;-92
2022/09/15 02:59:03;;;;;;;17.20;11.35;;;;;;;14.11;82.44;100628.50;6066254;23;20335;-93
2022/09/15 03:01:33;;;;;;;16.63;10.90;;;;;;;14.04;82.59;100617.38;6065682;23;20090;-93
2022/09/15 03:04:00;;;;;;;14.23;10.65;;;;;;;14.07;83.37;100634.94;6065312;23;20434;-92
2022/09/15 03:06:28;;;;;;;16.85;11.40;;;;;;;13.95;83.11;100621.44;6066317;23;20010;-92
2022/09/15 03:08:57;;;;;;;15.02;11.13;;;;;;;13.96;82.66;100636.44;6065773;23;20009;-93
2022/09/15 03:11:25;;;;;;;17.10;11.27;;;;;;;13.91;81.48;100634.97;6064140;23;20002;-92
2022/09/15 03:13:56;;;;;;;21.45;12.57;;;;;;;13.86;83.37;100631.75;6065770;23;20101;-93
2022/09/15 03:16:22;;;;;;;19.45;12.60;;;;;;;13.70;82.98;100629.06;6063891;23;20069;-93
2022/09/15 03:18:48;;;;;;;20.05;12.07;;;;;;;13.63;83.61;100639.19;6065300;23;20014;-93
2022/09/15 03:21:15;;;;;;;20.33;11.20;;;;;;;13.60;83.45;100636.72;6068678;23;20040;-92
2022/09/15 03:23:41;;;;;;;18.60;10.32;;;;;;;13.54;82.30;100645.03;6067489;23;20041;-93
2022/09/15 03:26:08;;;;;;;17.15;10.50;;;;;;;13.52;82.93;100644.22;6066197;23;20049;-93
2022/09/15 03:28:34;;;;;;;17.20;11.02;;;;;;;13.51;82.81;100643.38;6067828;23;20017;-92
2022/09/15 03:31:00;;;;;;;17.70;12.25;;;;;;;13.64;83.28;100648.03;6067616;23;20092;-94
2022/09/15 03:33:26;;;;;;;18.83;12.07;;;;;;;13.68;82.76;100650.44;6062980;23;20463;-92
2022/09/15 03:35:51;;;;;;;18.70;12.00;;;;;;;13.83;83.61;100653.16;6090705;23;20033;-92
2022/09/15 03:38:18;;;;;;;16.48;11.25;;;;;;;13.86;82.74;100655.66;6067614;23;20339;-92
2022/09/15 03:40:43;;;;;;;16.88;12.68;;;;;;;13.94;83.48;100662.25;6092524;23;20002;-92
2022/09/15 03:43:10;;;;;;;18.23;12.63;;;;;;;13.97;84.00;100663.84;6067495;23;20362;-92
2022/09/15 03:45:38;;;;;;;23.38;12.38;;;;;;;13.98;83.30;100654.94;6067428;23;20033;-92
2022/09/15 03:48:05;;;;;;;20.35;13.02;;;;;;;14.07;83.60;100657.06;6067407;23;20285;-93
2022/09/15 03:50:31;;;;;;;20.17;14.55;;;;;;;14.13;83.47;100664.72;6067174;23;20022;-92
2022/09/15 03:52:59;;;;;;;21.92;13.38;;;;;;;14.24;84.24;100664.94;6068141;23;20010;-93
2022/09/15 03:55:25;;;;;;;19.50;12.85;;;;;;;14.23;83.49;100663.22;6065704;23;20569;-93
2022/09/15 03:57:51;;;;;;;19.92;12.88;;;;;;;14.20;82.88;100651.91;6068438;23;20021;-92
2022/09/15 04:00:17;;;;;;;16.80;12.52;;;;;;;14.27;83.10;100659.44;6066681;23;20112;-92
2022/09/15 04:02:42;;;;;;;16.52;11.73;;;;;;;14.32;83.45;100660.97;6092631;23;20431;-93
2022/09/15 04:05:08;;;;;;;20.42;13.75;;;;;;;14.34;83.66;100661.75;6066979;23;20295;-93
2022/09/15 04:07:33;;;;;;;18.20;12.48;;;;;;;14.35;83.76;100663.44;6067069;23;20032;-91
2022/09/15 04:09:59;;;;;;;21.85;13.48;;;;;;;14.26;83.97;100638.25;6066605;23;20483;-92
2022/09/15 04:12:25;;;;;;;18.40;12.38;;;;;;;14.37;83.64;100654.44;6068023;23;20066;-92
2022/09/15 04:14:50;;;;;;;19.00;11.77;;;;;;;14.39;83.34;100655.19;6066302;23;20403;-93
2022/09/15 04:17:15;;;;;;;19.50;13.77;;;;;;;14.41;83.96;100661.28;6065793;23;20002;-91
2022/09/15 04:19:40;;;;;;;20.52;13.07;;;;;;;14.37;84.11;100651.78;6066720;23;20106;-92
2022/09/15 04:22:06;;;;;;;23.13;12.88;;;;;;;14.42;83.47;100655.03;6093523;23;20002;-92
2022/09/15 04:24:32;;;;;;;19.95;12.27;;;;;;;14.32;83.15;100661.84;6090044;23;20338;-92
2022/09/15 04:26:57;;;;;;;18.67;12.88;;;;;;;14.32;83.80;100658.31;6092926;23;20330;-92
2022/09/15 04:29:23;;;;;;;20.77;13.35;;;;;;;14.29;84.22;100652.22;6065313;23;20062;-92
2022/09/15 04:31:49;;;;;;;18.85;12.45;;;;;;;14.36;83.74;100665.16;6066840;23;20011;-91
2022/09/15 04:34:14;;;;;;;21.40;13.25;;;;;;;14.33;83.36;100650.25;6065893;23;20086;-93
2022/09/15 04:36:40;;;;;;;19.98;13.13;;;;;;;14.38;83.31;100653.50;6091422;23;20018;-93
2022/09/15 04:39:05;;;;;;;20.58;13.23;;;;;;;14.41;83.17;100655.97;6090440;23;20014;-91
2022/09/15 04:41:32;;;;;;;18.73;12.80;;;;;;;14.45;83.67;100657.47;6092534;23;20031;-93
2022/09/15 04:43:58;;;;;;;21.92;13.02;;;;;;;14.44;83.69;100661.09;6091211;23;20006;-92
2022/09/15 04:46:23;;;;;;;18.35;11.95;;;;;;;14.47;83.42;100662.72;6066677;23;20013;-92
2022/09/15 04:48:48;;;;;;;19.77;13.05;;;;;;;14.47;83.55;100654.75;6090787;23;20006;-92
2022/09/15 04:51:16;;;;;;;17.48;12.13;;;;;;;14.53;83.76;100657.91;6067995;23;20435;-93
2022/09/15 04:53:42;;;;;;;21.27;13.85;;;;;;;14.50;83.81;100657.25;6067736;23;20014;-92
2022/09/15 04:56:13;;;;;;;17.23;13.07;;;;;;;14.48;83.79;100654.69;6066496;23;20081;-92
2022/09/15 04:58:41;;;;;;;19.13;12.23;;;;;;;14.51;83.24;100656.31;6065831;23;20010;-92
2022/09/15 05:01:12;;;;;;;18.30;12.93;;;;;;;14.47;83.25;100660.91;6091401;23;20003;-92
2022/09/15 05:03:38;;;;;;;19.92;13.00;;;;;;;14.43;83.83;100659.38;6066628;23;20033;-91
2022/09/15 05:06:09;;;;;;;19.60;12.93;;;;;;;14.40;82.80;100661.38;6064463;23;20010;-92
2022/09/15 05:08:35;;;;;;;20.00;12.55;;;;;;;14.41;83.92;100666.63;6066147;23;20010;-92
2022/09/15 05:11:03;;;;;;;23.05;13.88;;;;;;;14.41;83.75;100663.06;6067457;23;20033;-92
2022/09/15 05:13:28;;;;;;;19.70;13.30;;;;;;;14.30;83.75;100656.59;6067586;23;20506;-92
2022/09/15 05:15:54;;;;;;;19.00;11.68;;;;;;;14.27;83.23;100650.63;6063787;23;20042;-92
2022/09/15 05:18:19;;;;;;;14.98;10.57;;;;;;;14.21;82.62;100658.94;6065933;23;20006;-92
2022/09/15 05:20:44;;;;;;;17.25;10.88;;;;;;;14.23;81.80;100660.56;6065970;23;20002;-91
2022/09/15 05:23:10;;;;;;;20.52;12.65;;;;;;;14.23;83.15;100655.25;6066769;23;20046;-91
2022/09/15 05:25:35;;;;;;;14.35;11.35;;;;;;;14.28;82.67;100661.16;6065177;23;20002;-92
2022/09/15 05:28:01;;;;;;;17.02;11.57;;;;;;;14.31;82.25;100657.44;6066159;23;20044;-90
2022/09/15 05:30:26;;;;;;;21.55;12.75;;;;;;;14.29;83.33;100659.34;6065421;23;20041;-92
2022/09/15 05:32:52;;;;;;;22.73;12.30;;;;;;;14.33;82.92;100660.03;6066481;23;20065;-92
2022/09/15 05:35:18;;;;;;;22.10;12.18;;;;;;;14.36;83.00;100655.41;6089531;23;20122;-92
2022/09/15 05:37:43;;;;;;;20.85;13.20;;;;;;;14.40;83.51;100666.69;6092291;23;20010;-92
2022/09/15 05:40:08;;;;;;;18.35;13.10;;;;;;;14.38;83.74;100660.63;6066698;23;20317;-92
2022/09/15 05:42:34;;;;;;;17.60;13.48;;;;;;;14.38;83.60;100656.16;6066665;23;20366;-91
2022/09/15 05:44:59;;;;;;;20.35;12.63;;;;;;;14.43;83.28;100680.66;6089815;23;20003;-91
2022/09/15 05:47:24;;;;;;;21.33;13.13;;;;;;;14.44;82.97;100671.72;6065506;23;20006;-91
2022/09/15 05:49:50;;;;;;;18.58;13.70;;;;;;;14.52;83.11;100681.97;6091190;23;20070;-92
2022/09/15 05:52:15;;;;;;;20.08;13.00;;;;;;;14.56;83.05;100674.66;6060702;23;20121;-91
2022/09/15 05:54:40;;;;;;;19.83;13.43;;;;;;;14.58;83.10;100684.25;6062601;23;20041;-92
2022/09/15 05:57:06;;;;;;;20.23;13.98;;;;;;;14.57;83.47;100682.53;6064235;23;20045;-91
2022/09/15 05:59:32;;;;;;;18.38;13.75;;;;;;;14.66;83.01;100692.66;6092719;23;20296;-91
2022/09/15 06:01:58;;;;;;;19.95;14.05;;;;;;;14.72;83.10;100694.06;6062785;23;20414;-91
2022/09/15 06:04:23;;;;;;;23.17;14.57;;;;;;;14.72;82.96;100697.59;6065653;23;20534;-91
2022/09/15 06:06:48;;;;;;;21.73;14.02;;;;;;;14.74;82.91;100690.41;6066020;23;20011;-91
2022/09/15 06:09:14;;;;;;;20.60;14.55;;;;;;;14.80;82.40;100695.34;6065140;23;20430;-91
2022/09/15 06:11:40;;;;;;;23.95;14.70;;;;;;;14.84;82.92;100701.34;6066607;23;20041;-91
2022/09/15 06:14:05;;;;;;;22.80;14.85;;;;;;;14.89;83.03;100701.91;6065227;23;20065;-91
2022/09/15 06:16:32;;;;;;;23.85;14.98;;;;;;;14.91;82.59;100701.81;6064490;23;20324;-91
2022/09/15 06:18:59;;;;;;;19.08;14.35;;;;;;;14.96;82.07;100713.88;6092217;23;20099;-92
2022/09/15 06:21:27;;;;;;;22.02;15.50;;;;;;;14.96;82.39;100713.88;6089821;23;20272;-92
2022/09/15 06:24:02;;;;;;;19.40;14.25;;;;;;;14.94;82.37;100706.97;6064107;23;20006;-91
2022/09/15 06:26:29;;;;;;;19.17;15.18;;;;;;;14.95;82.56;100717.50;6090295;23;20010;-91
2022/09/15 06:28:59;;;;;;;23.02;16.00;;;;;;;14.92;82.80;100708.84;6065760;23;20026;-91
2022/09/15 06:31:26;;;;;;;24.30;14.30;;;;;;;14.90;83.02;100713.41;6064902;23;20006;-91
2022/09/15 06:33:54;;;;;;;22.05;14.50;;;;;;;15.03;82.62;100722.38;6064571;23;20347;-93
2022/09/15 06:36:21;;;;;;;22.65;15.57;;;;;;;15.07;82.89;100721.25;6090851;23;20009;-92
2022/09/15 06:38:48;;;;;;;22.00;15.35;;;;;;;15.05;82.30;100720.47;6066051;23;20006;-92
2022/09/15 06:41:14;;;;;;;23.92;15.80;;;;;;;15.11;81.84;100717.44;6065415;23;19998;-92
2022/09/15 06:43:39;;;;;;;20.85;14.95;;;;;;;15.29;82.10;100734.09;6066238;23;20003;-93
2022/09/15 06:46:10;;;;;;;24.88;18.13;;;;;;;15.37;81.41;100730.97;6064758;23;20010;-92
2022/09/15 06:48:36;;;;;;;23.13;17.55;;;;;;;15.42;81.75;100736.84;6066120;23;20470;-93
2022/09/15 06:51:03;;;;;;;24.13;17.20;;;;;;;15.40;80.77;100734.31;6091140;23;20781;-92
2022/09/15 06:53:30;;;;;;;27.00;17.63;;;;;;;15.43;81.43;100738.56;6091639;23;20002;-92
2022/09/15 06:56:20;;;;;;;23.60;17.85;;;;;;;15.39;81.07;100737.91;6091122;23;20002;-92
2022/09/15 06:58:48;;;;;;;24.38;16.85;;;;;;;15.40;80.68;100750.28;6089339;23;20007;-92
2022/09/15 07:01:21;;;;;;;21.35;16.85;;;;;;;15.44;81.08;100748.28;6065132;23;20085;-92
2022/09/15 07:03:46;;;;;;;22.42;16.75;;;;;;;15.56;80.58;100752.84;6092128;23;20069;-92
2022/09/15 07:06:12;;;;;;;26.23;16.85;;;;;;;15.66;80.68;100748.69;6066505;23;20490;-92
2022/09/15 07:08:38;;;;;;;22.05;16.27;;;;;;;15.90;80.00;100758.75;6065514;23;20018;-92
2022/09/15 07:11:04;;;;;;;22.02;16.55;;;;;;;16.03;79.38;100749.00;6065392;23;20435;-91
2022/09/15 07:13:29;;;;;;;23.13;17.27;;;;;;;16.14;79.53;100746.53;6066010;23;20013;-92
2022/09/15 07:15:57;;;;;;;23.95;17.05;;;;;;;16.27;78.84;100750.09;6064886;23;20037;-92
2022/09/15 07:18:24;;;;;;;23.63;15.30;;;;;;;16.37;78.60;100761.03;6066220;23;20451;-92
2022/09/15 07:20:50;;;;;;;18.95;13.88;;;;;;;16.38;78.42;100751.22;6065842;23;20008;-92
2022/09/15 07:23:16;;;;;;;15.52;11.82;;;;;;;16.45;77.02;100760.50;6066079;23;20021;-93
2022/09/15 07:25:44;;;;;;;17.58;12.40;;;;;;;16.56;77.35;100750.00;6090368;23;20327;-93
2022/09/15 07:28:14;;;;;;;17.67;13.52;;;;;;;16.69;77.92;100761.53;6090695;23;20014;-93
2022/09/15 07:30:39;;;;;;;14.43;11.18;;;;;;;16.80;76.82;100761.72;6064940;23;20627;-93
2022/09/15 07:33:06;;;;;;;17.40;11.55;;;;;;;16.87;75.35;100769.31;6066804;23;20042;-92
2022/09/15 07:35:31;;;;;;;16.88;11.30;;;;;;;16.87;75.70;100769.31;6065662;23;20034;-92
2022/09/15 07:37:56;;;;;;;18.00;11.77;;;;;;;16.91;76.06;100770.81;6092043;23;20388;-92
2022/09/15 07:40:22;;;;;;;19.45;12.43;;;;;;;16.88;76.08;100760.34;6065870;23;20013;-93
2022/09/15 07:42:47;;;;;;;18.00;11.30;;;;;;;16.92;75.74;100767.19;6065332;23;20494;-93
2022/09/15 07:45:12;;;;;;;15.07;11.15;;;;;;;16.95;76.10;100773.19;6065776;23;20010;-93
2022/09/15 07:47:38;;;;;;;13.57;10.75;;;;;;;17.02;75.73;100779.81;6066458;23;20010;-93
2022/09/15 07:50:05;;;;;;;16.42;10.95;;;;;;;17.07;75.21;100782.19;6090948;23;20006;-93
2022/09/15 07:52:31;;;;;;;15.45;10.85;;;;;;;17.08;75.58;100775.88;6065628;23;20006;-93
2022/09/15 07:54:56;;;;;;;15.50;11.48;;;;;;;17.14;76.47;100774.59;6064690;23;20009;-93
2022/09/15 07:57:21;;;;;;;17.88;11.13;;;;;;;17.13;76.29;100781.75;6090624;23;20006;-92
2022/09/15 07:59:47;;;;;;;14.43;8.40;;;;;;;17.04;74.86;100775.22;6064741;23;20037;-93
2022/09/15 08:02:17;;;;;;;13.23;9.40;;;;;;;17.06;76.09;100788.47;6065373;23;20308;-91
2022/09/15 08:04:43;;;;;;;14.80;9.20;;;;;;;17.05;75.16;100798.28;6064778;23;20002;-94
2022/09/15 08:07:08;;;;;;;11.20;7.95;;;;;;;17.03;74.50;100794.88;6062030;23;20137;-95
2022/09/15 08:09:33;;;;;;;14.30;7.97;;;;;;;17.05;74.14;100795.63;6062206;23;20012;-93
2022/09/15 08:11:58;;;;;;;13.18;7.70;;;;;;;17.03;74.68;100799.38;6068350;23;20376;-95
2022/09/15 08:14:24;;;;;;;12.48;7.90;;;;;;;17.08;75.19;100789.22;6093706;23;20450;-95
2022/09/15 08:16:49;;;;;;;11.13;7.90;;;;;;;17.11;74.70;100796.16;6067998;23;20002;-94
2022/09/15 08:19:15;;;;;;;11.98;7.78;;;;;;;17.24;74.75;100799.72;6068793;23;20014;-94
2022/09/15 08:21:40;;;;;;;11.73;8.65;;;;;;;17.32;75.14;100802.72;6067933;23;20541;-95
2022/09/15 08:24:05;;;;;;;12.27;7.70;;;;;;;17.47;73.55;100793.63;6067695;23;20010;-94
2022/09/15 08:26:31;;;;;;;15.55;8.38;;;;;;;17.69;73.34;100795.66;6067296;23;20021;-94
2022/09/15 08:28:56;;;;;;;9.45;6.53;;;;;;;17.87;71.15;100811.41;6066309;23;20022;-93
2022/09/15 08:31:23;;;;;;;14.07;7.30;;;;;;;17.95;71.36;100806.34;6092800;23;20021;-93
2022/09/15 08:33:55;;;;;;;8.23;6.50;;;;;;;17.94;71.37;100796.63;6066080;23;20089;-94
2022/09/15 08:36:21;;;;;;;;;;;;;;;18.18;72.95;100812.72;6066963;23;20014;-95
2022/09/15 08:38:47;;;;;;;11.93;7.80;;;;;;;17.98;72.17;100817.69;6066543;23;20382;-93
2022/09/15 08:41:21;;;;;;;11.82;6.88;;;;;;;17.99;71.81;100822.06;6067157;23;20005;-93
2022/09/15 08:44:11;;;;;;;10.80;6.65;;;;;;;17.98;72.10;100822.19;6066999;23;20061;-94
2022/09/15 08:46:43;;;;;;;13.07;6.15;;;;;;;17.89;70.35;100830.88;6088198;23;20427;-93
2022/09/15 08:49:16;;;;;;;13.82;6.28;;;;;;;17.79;71.76;100822.66;6067269;23;20057;-94
2022/09/15 08:51:50;;;;;;;11.35;6.53;;;;;;;17.68;71.03;100810.00;6093134;23;20007;-93
2022/09/15 08:54:21;;;;;;;14.60;6.57;;;;;;;17.79;71.47;100812.78;6092934;23;20006;-94
2022/09/15 08:56:47;;;;;;;10.63;7.10;;;;;;;17.90;71.18;100828.06;6043764;23;20048;-94
2022/09/15 08:59:14;;;;;;;13.02;7.78;;;;;;;17.89;72.56;100828.19;6068397;23;20038;-95
2022/09/15 09:01:53;;;;;;;9.25;7.60;;;;;;;18.00;72.39;100837.19;6097067;23;20026;-93
2022/09/15 09:04:44;;;;;;;9.90;7.20;;;;;;;18.08;71.21;100842.81;6066910;23;20013;-95
2022/09/15 09:07:36;;;;;;;12.35;6.85;;;;;;;18.19;69.24;100844.75;6067419;23;20014;-94
2022/09/15 09:10:01;;;;;;;;;;;;;;;18.50;70.69;100847.84;6072052;23;20547;-95
2022/09/15 09:12:40;;;;;;;8.55;5.60;;;;;;;18.46;67.44;100843.69;6066109;23;19964;-93
2022/09/15 09:15:14;;;;;;;10.95;6.18;;;;;;;18.56;68.10;100853.63;6067528;23;20363;-93
2022/09/15 09:18:04;;;;;;;11.20;5.80;;;;;;;18.59;67.85;100855.22;6067489;23;20010;-92
2022/09/15 09:20:47;;;;;;;10.02;5.82;;;;;;;18.54;68.62;100860.06;6068115;23;20006;-93
2022/09/15 09:23:16;;;;;;;12.50;6.03;;;;;;;18.43;67.69;100852.81;6089588;23;20037;-94
2022/09/15 09:25:43;;;;;;;9.95;5.50;;;;;;;18.42;66.59;100858.25;6091923;23;20006;-93
2022/09/15 09:28:30;;;;;;;10.55;6.25;;;;;;;18.43;68.63;100854.63;6066413;23;20026;-93
2022/09/15 09:31:14;;;;;;;13.23;4.93;;;;;;;18.31;67.60;100857.22;6066907;23;20030;-94
2022/09/15 09:33:43;;;;;;;8.18;5.10;;;;;;;18.32;68.69;100860.75;6067186;23;20003;-93
2022/09/15 09:36:10;;;;;;;10.95;5.35;;;;;;;18.32;66.60;100866.09;6067298;23;20343;-93
2022/09/15 09:38:42;;;;;;;9.55;5.60;;;;;;;18.28;67.50;100853.94;6067035;23;20423;-93
2022/09/15 09:41:18;;;;;;;8.82;5.05;;;;;;;18.18;66.72;100859.06;6066587;23;20009;-93
2022/09/15 09:43:46;;;;;;;7.82;5.05;;;;;;;18.08;66.93;100861.53;6067733;23;20006;-93
2022/09/15 09:46:14;;;;;;;14.15;5.50;;;;;;;18.05;68.45;100863.59;6067692;23;20061;-93
2022/09/15 09:48:45;;;;;;;9.50;5.90;;;;;;;17.92;69.95;100841.38;6066872;23;20424;-94
2022/09/15 09:51:30;;;;;;;9.50;5.60;;;;;;;18.02;69.80;100855.78;6067123;23;20489;-94
2022/09/15 09:53:55;;;;;;;8.48;5.90;;;;;;;17.98;70.86;100860.50;6068041;23;20093;-94
2022/09/15 09:56:24;;;;;;;11.30;5.75;;;;;;;17.91;70.52;100863.72;6067085;23;20037;-94
2022/09/15 09:58:50;;;;;;;11.93;5.68;;;;;;;17.82;68.89;100862.56;6068224;23;20481;-95
2022/09/15 10:01:18;;;;;;;12.95;6.07;;;;;;;17.72;70.13;100870.34;6066394;23;20010;-93
2022/09/15 10:03:44;;;;;;;10.13;6.43;;;;;;;17.57;71.18;100863.34;6067540;23;20010;-93
2022/09/15 10:06:15;;;;;;;12.35;6.80;;;;;;;17.50;72.38;100864.75;6089040;23;20089;-92
2022/09/15 10:09:17;;;;;;;10.88;7.07;;;;;;;17.63;72.80;100862.09;6090531;23;20022;-92
2022/09/15 10:11:56;;;;;;;10.55;6.78;;;;;;;17.60;73.54;100855.13;6065156;23;20006;-92
2022/09/15 10:14:29;;;;;;;10.52;5.95;;;;;;;17.67;72.79;100868.91;6092142;23;20014;-92
2022/09/15 10:17:17;;;;;;;10.23;6.15;;;;;;;17.70;72.87;100876.72;6065700;23;20262;-92
2022/09/15 10:19:42;;;;;;;9.48;5.63;;;;;;;17.77;73.27;100872.72;6090622;23;20002;-93
2022/09/15 10:22:08;;;;;;;9.40;6.07;;;;;;;17.70;73.60;100864.22;6092735;23;20009;-92
2022/09/15 10:24:43;;;;;;;13.15;6.13;;;;;;;17.84;72.31;100865.97;6065889;23;20250;-93
2022/09/15 10:27:19;;;;;;;11.70;5.97;;;;;;;17.93;73.39;100865.31;6065376;23;20343;-93
2022/09/15 10:29:45;;;;;;;12.25;7.93;;;;;;;17.90;70.13;100854.81;6065428;23;20021;-93
2022/09/15 10:32:22;;;;;;;12.57;7.93;;;;;;;18.02;72.12;100851.28;6064994;23;20331;-92
2022/09/15 10:34:50;;;;;;;19.27;9.15;;;;;;;18.10;72.38;100843.56;6066111;23;20006;-93
2022/09/15 10:37:24;;;;;;;11.68;7.55;;;;;;;18.31;70.27;100856.38;6064694;23;20080;-93
2022/09/15 10:39:55;;;;;;;12.07;8.23;;;;;;;18.38;70.39;100848.78;6066142;23;20007;-92
2022/09/15 10:42:49;;;;;;;13.30;7.40;;;;;;;18.56;70.29;100852.78;6090975;23;20415;-92
2022/09/15 10:45:43;;;;;;;6.85;4.70;;;;;;;18.58;69.91;100857.03;6076320;23;20065;-93
2022/09/15 10:48:32;;;;;;;5.80;4.60;;;;;;;18.61;69.75;100859.50;6065205;23;20368;-92
2022/09/15 10:51:14;;;;;;;10.75;5.05;;;;;;;18.44;70.16;100867.91;6063830;23;20013;-92
2022/09/15 10:53:48;;;;;;;9.07;3.20;;;;;;;18.27;68.98;100871.78;6092008;23;20003;-93
2022/09/15 10:56:37;;;;;;;5.78;2.65;;;;;;;18.05;69.07;100890.34;6065637;23;20006;-93
2022/09/15 10:59:24;;;;;;;6.25;2.00;;;;;;;17.74;70.14;100894.31;6064873;23;20338;-92
2022/09/15 11:02:34;;;;;;;4.00;1.45;;;;;;;17.44;68.54;100890.09;6090747;23;20029;-91
2022/09/15 11:05:09;;;;;;;8.48;1.60;;;;;;;17.32;69.95;100888.22;6091474;23;20041;-93
2022/09/15 11:07:48;;;;;;;2.47;1.25;;;;;;;17.34;69.66;100887.16;6091922;23;20435;-92
2022/09/15 11:10:45;;;;;;;8.77;1.38;;;;;;;17.54;68.08;100893.84;6091629;23;20416;-92
2022/09/15 11:13:24;;;;;;;4.95;1.10;;;;;;;17.82;67.66;100891.97;6064884;23;20073;-92
2022/09/15 11:16:04;;;;;;;4.43;1.40;;;;;;;18.29;67.67;100877.91;6090706;23;20085;-92
2022/09/15 11:18:47;;;;;;;5.05;1.10;;;;;;;18.95;64.92;100880.28;6090385;23;20061;-92
2022/09/15 11:21:20;;;;;;;2.72;1.00;;;;;;;19.94;59.84;100879.84;6090214;23;20030;-91
2022/09/15 11:24:27;;;;;;;5.65;1.08;;;;;;;21.39;64.58;100876.88;6092182;23;20029;-92
2022/09/15 11:26:57;;;;;;;4.70;0.70;;;;;;;22.37;54.80;100875.59;6066476;23;20006;-92